createdAt,value
2023-01-17T00:02:22.739Z,50.00
2023-01-17T00:05:09.168Z,49.90
2023-01-17T00:07:55.049Z,49.79
2023-01-17T00:10:25.210Z,49.86
2023-01-17T00:12:58.921Z,49.86
2023-01-17T00:15:28.557Z,49.80
2023-01-17T00:17:57.031Z,49.88
2023-01-17T00:20:46.046Z,49.79
2023-01-17T00:23:39.335Z,49.82
2023-01-17T00:26:11.896Z,49.69
2023-01-17T00:28:41.039Z,49.73
2023-01-17T00:31:10.579Z,49.81
2023-01-17T00:33:38.531Z,49.63
2023-01-17T00:36:06.397Z,49.81
2023-01-17T00:38:36.915Z,49.82
2023-01-17T00:41:12.721Z,49.85
2023-01-17T00:43:59.963Z,49.71
2023-01-17T00:46:45.968Z,49.75
2023-01-17T00:49:31.906Z,49.62
2023-01-17T00:52:17.785Z,49.80
2023-01-17T00:55:04.148Z,49.71
2023-01-17T00:57:49.867Z,49.52
2023-01-17T01:00:39.721Z,49.69
2023-01-17T01:03:30.216Z,49.69
2023-01-17T01:06:17.387Z,49.81
2023-01-17T01:09:03.171Z,49.72
2023-01-17T01:11:49.356Z,49.67
2023-01-17T01:14:35.778Z,49.77
2023-01-17T01:17:22.848Z,49.64
2023-01-17T01:20:08.824Z,49.59
2023-01-17T01:22:55.266Z,49.68
2023-01-17T01:25:41.015Z,49.77
2023-01-17T01:28:31.635Z,49.70
2023-01-17T01:31:24.737Z,49.67
2023-01-17T01:33:53.403Z,49.71
2023-01-17T01:36:20.854Z,49.64
2023-01-17T01:38:50.179Z,49.80
2023-01-17T01:41:17.976Z,49.72
2023-01-17T01:43:45.492Z,49.49
2023-01-17T01:46:24.423Z,49.60
2023-01-17T01:48:55.066Z,49.51
2023-01-17T01:51:33.225Z,49.51
2023-01-17T01:54:22.788Z,49.59
2023-01-17T01:56:53.151Z,49.71
2023-01-17T01:59:22.425Z,49.70
2023-01-17T02:01:52.975Z,49.64
2023-01-17T02:04:22.581Z,49.72
2023-01-17T02:06:55.905Z,49.70
2023-01-17T02:09:25.125Z,49.77
2023-01-17T02:11:52.611Z,49.76
2023-01-17T02:14:22.007Z,49.73
2023-01-17T02:17:15.617Z,49.74
2023-01-17T02:20:21.984Z,49.73
2023-01-17T02:22:58.348Z,49.76
2023-01-17T02:25:28.746Z,49.76
2023-01-17T02:28:08.342Z,49.69
2023-01-17T02:30:39.623Z,49.91
2023-01-17T02:33:12.251Z,49.94
2023-01-17T02:35:59.859Z,49.94
2023-01-17T02:38:33.979Z,49.76
2023-01-17T02:41:07.719Z,49.71
2023-01-17T02:43:37.151Z,49.66
2023-01-17T02:46:04.848Z,49.69
2023-01-17T02:48:36.311Z,49.75
2023-01-17T02:51:22.426Z,49.79
2023-01-17T02:54:20.205Z,49.75
2023-01-17T02:57:19.697Z,49.68
2023-01-17T02:59:58.348Z,49.74
2023-01-17T03:02:40.518Z,49.81
2023-01-17T03:05:13.545Z,49.75
2023-01-17T03:07:44.181Z,49.75
2023-01-17T03:10:15.168Z,49.66
2023-01-17T03:12:45.474Z,49.79
2023-01-17T03:15:15.531Z,49.73
2023-01-17T03:17:49.553Z,49.66
2023-01-17T03:20:17.302Z,49.71
2023-01-17T03:22:44.838Z,49.74
2023-01-17T03:25:12.211Z,49.81
2023-01-17T03:27:39.758Z,49.90
2023-01-17T03:30:07.979Z,49.54
2023-01-17T03:32:35.602Z,49.68
2023-01-17T03:35:03.699Z,49.77
2023-01-17T03:37:31.248Z,49.60
2023-01-17T03:39:58.545Z,49.62
2023-01-17T03:42:26.055Z,49.74
2023-01-17T03:44:53.321Z,49.71
2023-01-17T03:47:20.944Z,49.78
2023-01-17T03:49:48.667Z,49.75
2023-01-17T03:52:16.215Z,49.73
2023-01-17T03:54:43.794Z,49.82
2023-01-17T03:57:11.345Z,49.79
2023-01-17T03:59:38.635Z,49.75
2023-01-17T04:02:08.548Z,49.75
2023-01-17T04:04:35.880Z,49.81
2023-01-17T04:07:03.504Z,49.80
2023-01-17T04:09:34.015Z,49.62
2023-01-17T04:12:02.475Z,49.94
2023-01-17T04:14:30.632Z,49.58
2023-01-17T04:16:58.354Z,49.80
2023-01-17T04:19:25.669Z,49.57
2023-01-17T04:21:53.330Z,49.78
2023-01-17T04:24:20.624Z,49.54
2023-01-17T04:26:48.344Z,49.51
2023-01-17T04:29:15.796Z,49.82
2023-01-17T04:31:43.495Z,49.48
2023-01-17T04:34:10.876Z,49.46
2023-01-17T04:36:38.487Z,49.73
2023-01-17T04:39:05.883Z,49.67
2023-01-17T04:41:33.864Z,49.50
2023-01-17T04:44:01.919Z,49.79
2023-01-17T04:46:29.672Z,49.63
2023-01-17T04:48:56.993Z,49.75
2023-01-17T04:51:24.771Z,49.41
2023-01-17T04:53:52.069Z,49.66
2023-01-17T04:56:19.797Z,49.47
2023-01-17T04:58:47.865Z,49.55
2023-01-17T05:01:15.580Z,49.53
2023-01-17T05:03:42.945Z,49.58
2023-01-17T05:06:10.642Z,49.62
2023-01-17T05:08:37.952Z,49.59
2023-01-17T05:11:05.724Z,49.56
2023-01-17T05:13:33.036Z,49.52
2023-01-17T05:16:00.638Z,49.53
2023-01-17T05:18:28.055Z,49.79
2023-01-17T05:21:01.215Z,49.64
2023-01-17T05:23:28.523Z,49.52
2023-01-17T05:25:56.185Z,49.47
2023-01-17T05:28:23.508Z,49.51
2023-01-17T05:30:51.906Z,49.63
2023-01-17T05:33:19.237Z,49.73
2023-01-17T05:35:47.631Z,49.61
2023-01-17T05:38:15.119Z,49.89
2023-01-17T05:40:42.811Z,50.31
2023-01-17T05:43:10.117Z,50.63
2023-01-17T05:45:37.622Z,50.60
2023-01-17T05:48:05.187Z,50.71
2023-01-17T05:50:35.761Z,50.76
2023-01-17T05:53:13.178Z,50.90
2023-01-17T05:55:41.675Z,50.67
2023-01-17T05:58:18.413Z,50.92
2023-01-17T06:00:47.147Z,50.68
2023-01-17T06:03:15.252Z,50.74
2023-01-17T06:05:43.153Z,50.68
2023-01-17T06:08:11.596Z,50.81
2023-01-17T06:10:39.266Z,50.63
2023-01-17T06:13:08.881Z,50.72
2023-01-17T06:15:37.642Z,50.91
2023-01-17T06:18:10.042Z,50.77
2023-01-17T06:20:38.009Z,51.10
2023-01-17T06:23:07.474Z,50.97
2023-01-17T06:25:39.559Z,50.86
2023-01-17T06:28:07.613Z,50.94
2023-01-17T06:30:37.038Z,50.96
2023-01-17T06:33:05.093Z,50.92
2023-01-17T06:35:32.711Z,50.81
2023-01-17T06:38:00.498Z,50.92
2023-01-17T06:40:29.288Z,50.84
2023-01-17T06:43:04.318Z,50.79
2023-01-17T06:45:34.763Z,50.71
2023-01-17T06:48:04.077Z,50.70
2023-01-17T06:50:32.848Z,50.75
2023-01-17T06:53:05.081Z,50.77
2023-01-17T06:55:34.048Z,50.70
2023-01-17T06:58:02.880Z,51.11
2023-01-17T07:00:40.342Z,51.05
2023-01-17T07:03:17.881Z,50.92
2023-01-17T07:05:45.752Z,50.92
2023-01-17T07:08:13.591Z,51.04
2023-01-17T07:10:41.174Z,51.02
2023-01-17T07:13:08.506Z,51.05
2023-01-17T07:15:36.068Z,50.91
2023-01-17T07:18:04.453Z,50.53
2023-01-17T07:20:32.943Z,50.83
2023-01-17T07:23:00.354Z,50.95
2023-01-17T07:25:27.958Z,50.88
2023-01-17T07:27:57.499Z,50.87
2023-01-17T07:30:25.384Z,50.61
2023-01-17T07:32:55.945Z,50.58
2023-01-17T07:35:26.688Z,50.78
2023-01-17T07:37:54.790Z,50.48
2023-01-17T07:40:22.909Z,50.50
2023-01-17T07:42:50.228Z,50.46
2023-01-17T07:45:17.952Z,50.61
2023-01-17T07:47:45.302Z,50.46
2023-01-17T07:50:13.690Z,50.68
2023-01-17T07:52:42.067Z,50.60
2023-01-17T07:55:10.061Z,50.38
2023-01-17T07:57:37.690Z,50.46
2023-01-17T08:00:05.995Z,50.63
2023-01-17T08:02:34.206Z,50.46
2023-01-17T08:05:01.815Z,50.41
2023-01-17T08:07:29.443Z,50.36
2023-01-17T08:09:57.795Z,50.48
2023-01-17T08:12:26.036Z,50.54
2023-01-17T08:14:53.595Z,50.48
2023-01-17T08:17:21.650Z,50.51
2023-01-17T08:19:51.287Z,50.44
2023-01-17T08:22:19.794Z,50.42
2023-01-17T08:24:47.480Z,50.34
2023-01-17T08:27:15.372Z,50.40
2023-01-17T08:29:47.030Z,50.53
2023-01-17T08:32:15.367Z,50.28
2023-01-17T08:34:42.940Z,50.28
2023-01-17T08:37:10.203Z,50.19
2023-01-17T08:39:38.153Z,50.24
2023-01-17T08:42:05.518Z,50.28
2023-01-17T08:44:33.197Z,50.25
2023-01-17T08:47:01.368Z,50.33
2023-01-17T08:49:28.934Z,50.35
2023-01-17T08:51:56.271Z,50.03
2023-01-17T08:54:24.210Z,50.07
2023-01-17T08:56:52.872Z,50.12
2023-01-17T08:59:20.721Z,49.84
2023-01-17T09:01:48.197Z,49.86
2023-01-17T09:04:17.389Z,49.86
2023-01-17T09:06:47.292Z,49.93
2023-01-17T09:09:17.985Z,50.09
2023-01-17T09:11:45.345Z,49.92
2023-01-17T09:14:13.587Z,49.84
2023-01-17T09:16:41.232Z,49.69
2023-01-17T09:19:09.152Z,49.86
2023-01-17T09:21:36.451Z,49.89
2023-01-17T09:24:04.004Z,49.94
2023-01-17T09:26:31.670Z,49.85
2023-01-17T09:28:59.361Z,49.81
2023-01-17T09:31:29.704Z,49.86
2023-01-17T09:33:58.682Z,49.65
2023-01-17T09:36:33.843Z,49.68
2023-01-17T09:39:02.581Z,49.67
2023-01-17T09:41:36.172Z,49.59
2023-01-17T09:44:06.704Z,49.39
2023-01-17T09:46:39.950Z,49.58
2023-01-17T09:49:13.537Z,49.58
2023-01-17T09:51:42.362Z,49.55
2023-01-17T09:54:23.104Z,49.52
2023-01-17T09:57:02.957Z,49.51
2023-01-17T09:59:45.814Z,49.44
2023-01-17T10:02:38.625Z,49.33
2023-01-17T10:05:23.378Z,49.69
2023-01-17T10:08:09.695Z,49.34
2023-01-17T10:11:06.260Z,49.37
2023-01-17T10:13:52.689Z,49.24
2023-01-17T10:16:52.024Z,49.29
2023-01-17T10:19:25.448Z,49.37
2023-01-17T10:22:15.640Z,49.36
2023-01-17T10:24:58.302Z,49.29
2023-01-17T10:27:34.027Z,49.14
2023-01-17T10:30:10.988Z,49.23
2023-01-17T10:32:46.395Z,49.27
2023-01-17T10:35:21.600Z,49.33
2023-01-17T10:37:52.185Z,49.19
2023-01-17T10:40:41.135Z,49.15
2023-01-17T10:43:53.313Z,49.36
2023-01-17T10:46:28.443Z,49.14
2023-01-17T10:48:57.072Z,49.19
2023-01-17T10:52:03.175Z,49.24
2023-01-17T10:54:42.862Z,49.22
2023-01-17T10:57:23.582Z,49.27
2023-01-17T10:59:52.286Z,49.07
2023-01-17T11:02:31.700Z,49.25
2023-01-17T11:05:05.540Z,49.20
2023-01-17T11:07:32.864Z,49.09
2023-01-17T11:10:00.735Z,49.13
2023-01-17T11:12:32.306Z,49.22
2023-01-17T11:15:02.514Z,49.21
2023-01-17T11:17:31.254Z,49.07
2023-01-17T11:20:15.689Z,49.06
2023-01-17T11:22:59.286Z,49.08
2023-01-17T11:25:29.367Z,49.14
2023-01-17T11:28:02.969Z,48.90
2023-01-17T11:30:30.686Z,49.24
2023-01-17T11:33:07.039Z,49.03
2023-01-17T11:35:37.116Z,49.00
2023-01-17T11:38:16.300Z,49.12
2023-01-17T11:40:45.674Z,48.89
2023-01-17T11:43:14.288Z,49.18
2023-01-17T11:45:41.871Z,48.96
2023-01-17T11:48:09.134Z,48.98
2023-01-17T11:50:41.919Z,49.11
2023-01-17T11:53:21.264Z,49.01
2023-01-17T11:56:27.972Z,49.06
2023-01-17T11:59:26.937Z,48.97
2023-01-17T12:02:19.990Z,48.96
2023-01-17T12:05:00.123Z,49.10
2023-01-17T12:08:01.745Z,48.84
2023-01-17T12:10:33.688Z,48.93
2023-01-17T12:13:29.159Z,48.79
2023-01-17T12:16:33.200Z,48.89
2023-01-17T12:19:43.518Z,49.05
2023-01-17T12:22:23.108Z,48.87
2023-01-17T12:25:17.582Z,48.91
2023-01-17T12:27:50.700Z,48.95
2023-01-17T12:30:58.588Z,48.88
2023-01-17T12:34:13.893Z,48.91
2023-01-17T12:36:56.563Z,48.98
2023-01-17T12:39:30.834Z,49.09
2023-01-17T12:42:20.452Z,49.23
2023-01-17T12:44:52.564Z,49.52
2023-01-17T12:47:21.754Z,49.53
2023-01-17T12:50:23.736Z,49.60
2023-01-17T12:53:06.639Z,49.84
2023-01-17T12:55:39.455Z,49.72
2023-01-17T12:58:15.141Z,49.97
2023-01-17T13:00:44.721Z,49.74
2023-01-17T13:03:25.939Z,49.63
2023-01-17T13:05:55.489Z,49.30
2023-01-17T13:08:46.488Z,49.25
2023-01-17T13:11:51.891Z,49.21
2023-01-17T13:14:19.467Z,48.96
2023-01-17T13:16:59.201Z,48.94
2023-01-17T13:19:51.071Z,48.97
2023-01-17T13:22:21.861Z,48.92
2023-01-17T13:24:58.382Z,48.88
2023-01-17T13:27:55.751Z,49.03
2023-01-17T13:30:32.073Z,49.05
2023-01-17T13:33:20.392Z,49.28
2023-01-17T13:36:06.566Z,49.45
2023-01-17T13:38:39.336Z,49.48
2023-01-17T13:41:28.633Z,50.13
2023-01-17T13:44:14.632Z,49.99
2023-01-17T13:47:17.214Z,50.10
2023-01-17T13:49:48.630Z,49.74
2023-01-17T13:52:19.081Z,49.65
2023-01-17T13:55:00.931Z,50.00
2023-01-17T13:57:30.382Z,50.23
2023-01-17T14:00:26.842Z,50.45
2023-01-17T14:02:55.614Z,51.22
2023-01-17T14:05:38.166Z,51.30
2023-01-17T14:08:14.557Z,51.20
2023-01-17T14:10:47.613Z,51.22
2023-01-17T14:13:40.240Z,51.28
2023-01-17T14:16:22.815Z,51.75
2023-01-17T14:18:50.499Z,51.84
2023-01-17T14:21:25.017Z,51.73
2023-01-17T14:23:59.783Z,51.83
2023-01-17T14:26:41.317Z,52.10
2023-01-17T14:29:43.874Z,52.05
2023-01-17T14:32:37.870Z,52.10
2023-01-17T14:35:06.170Z,52.09
2023-01-17T14:37:33.401Z,52.26
2023-01-17T14:40:01.359Z,52.37
2023-01-17T14:42:31.303Z,52.79
2023-01-17T14:45:09.503Z,52.57
2023-01-17T14:47:39.788Z,52.62
2023-01-17T14:50:12.029Z,52.82
2023-01-17T14:52:39.315Z,52.54
2023-01-17T14:55:16.997Z,52.72
2023-01-17T14:57:54.633Z,52.70
2023-01-17T15:00:25.266Z,52.50
2023-01-17T15:02:53.964Z,52.64
2023-01-17T15:05:25.376Z,52.37
2023-01-17T15:07:57.994Z,52.69
2023-01-17T15:10:29.047Z,52.66
2023-01-17T15:12:58.912Z,52.55
2023-01-17T15:15:30.191Z,53.05
2023-01-17T15:18:21.318Z,52.62
2023-01-17T15:21:01.104Z,52.67
2023-01-17T15:23:36.320Z,52.61
2023-01-17T15:26:07.294Z,52.79
2023-01-17T15:28:35.435Z,52.99
2023-01-17T15:31:16.429Z,52.92
2023-01-17T15:33:48.037Z,53.06
2023-01-17T15:36:28.752Z,52.98
2023-01-17T15:39:06.123Z,53.00
2023-01-17T15:41:35.887Z,53.14
2023-01-17T15:44:05.235Z,53.61
2023-01-17T15:46:44.939Z,53.21
2023-01-17T15:49:23.888Z,53.21
2023-01-17T15:52:15.463Z,53.30
2023-01-17T15:54:47.551Z,53.32
2023-01-17T15:57:32.544Z,53.32
2023-01-17T16:00:07.590Z,53.33
2023-01-17T16:02:43.163Z,53.23
2023-01-17T16:05:33.383Z,53.32
2023-01-17T16:08:04.223Z,53.33
2023-01-17T16:10:37.117Z,53.27
2023-01-17T16:13:07.406Z,53.32
2023-01-17T16:15:36.796Z,53.47
2023-01-17T16:18:09.186Z,53.23
2023-01-17T16:20:43.662Z,53.37
2023-01-17T16:23:11.735Z,53.40
2023-01-17T16:25:39.314Z,53.34
2023-01-17T16:28:07.140Z,53.35
2023-01-17T16:30:34.516Z,53.39
2023-01-17T16:33:03.119Z,53.42
2023-01-17T16:35:34.252Z,53.35
2023-01-17T16:38:05.297Z,53.36
2023-01-17T16:40:38.981Z,53.30
2023-01-17T16:43:07.487Z,53.35
2023-01-17T16:45:46.598Z,53.53
2023-01-17T16:48:14.729Z,53.21
2023-01-17T16:50:53.263Z,53.26
2023-01-17T16:53:26.426Z,53.45
2023-01-17T16:55:57.081Z,53.20
2023-01-17T16:58:25.421Z,53.25
2023-01-17T17:00:55.243Z,53.23
2023-01-17T17:03:23.056Z,53.23
2023-01-17T17:06:00.440Z,53.31
2023-01-17T17:08:29.374Z,53.31
2023-01-17T17:11:07.860Z,53.34
2023-01-17T17:13:36.172Z,53.22
2023-01-17T17:16:10.582Z,53.04
2023-01-17T17:18:38.315Z,53.03
2023-01-17T17:21:05.579Z,52.78
2023-01-17T17:23:33.155Z,52.84
2023-01-17T17:26:00.512Z,52.88
2023-01-17T17:28:28.296Z,52.90
2023-01-17T17:31:05.981Z,52.92
2023-01-17T17:33:33.672Z,52.86
2023-01-17T17:36:11.183Z,52.92
2023-01-17T17:38:50.604Z,52.88
2023-01-17T17:41:23.167Z,52.94
2023-01-17T17:43:52.243Z,52.82
2023-01-17T17:46:21.616Z,53.01
2023-01-17T17:48:49.537Z,53.19
2023-01-17T17:51:32.367Z,52.89
2023-01-17T17:54:03.059Z,52.92
2023-01-17T17:56:32.416Z,53.03
2023-01-17T17:59:01.791Z,52.95
2023-01-17T18:01:30.103Z,52.85
2023-01-17T18:04:02.663Z,52.84
2023-01-17T18:06:30.413Z,52.81
2023-01-17T18:08:59.497Z,52.86
2023-01-17T18:11:28.760Z,52.96
2023-01-17T18:13:59.895Z,53.06
2023-01-17T18:16:32.584Z,52.96
2023-01-17T18:19:00.231Z,52.95
2023-01-17T18:21:30.822Z,52.97
2023-01-17T18:24:01.660Z,52.86
2023-01-17T18:26:32.077Z,52.87
2023-01-17T18:29:01.270Z,52.81
2023-01-17T18:31:30.047Z,52.72
2023-01-17T18:34:00.355Z,52.61
2023-01-17T18:36:28.751Z,52.64
2023-01-17T18:38:57.141Z,52.74
2023-01-17T18:41:27.017Z,52.64
2023-01-17T18:43:57.775Z,52.61
2023-01-17T18:46:27.199Z,52.45
2023-01-17T18:48:58.396Z,52.48
2023-01-17T18:51:27.994Z,52.59
2023-01-17T18:53:55.531Z,52.48
2023-01-17T18:56:23.350Z,52.52
2023-01-17T18:58:51.186Z,52.46
2023-01-17T19:01:24.390Z,52.50
2023-01-17T19:03:55.658Z,52.58
2023-01-17T19:06:27.462Z,52.52
2023-01-17T19:08:55.121Z,52.63
2023-01-17T19:11:23.992Z,52.75
2023-01-17T19:13:52.522Z,52.73
2023-01-17T19:16:28.289Z,52.76
2023-01-17T19:18:58.072Z,52.74
2023-01-17T19:21:27.537Z,52.87
2023-01-17T19:23:57.242Z,52.81
2023-01-17T19:26:27.047Z,52.91
2023-01-17T19:28:56.861Z,52.86
2023-01-17T19:31:26.918Z,52.95
2023-01-17T19:33:57.479Z,52.87
2023-01-17T19:36:33.425Z,52.91
2023-01-17T19:39:05.294Z,52.99
2023-01-17T19:41:37.531Z,53.08
2023-01-17T19:44:07.581Z,52.98
2023-01-17T19:46:35.725Z,53.25
2023-01-17T19:49:06.406Z,53.10
2023-01-17T19:51:33.708Z,53.05
2023-01-17T19:54:01.829Z,53.09
2023-01-17T19:56:29.755Z,53.16
2023-01-17T19:59:00.872Z,53.14
2023-01-17T20:01:30.659Z,53.11
2023-01-17T20:03:59.753Z,53.08
2023-01-17T20:06:29.851Z,53.20
2023-01-17T20:08:57.531Z,53.17
2023-01-17T20:11:26.739Z,53.08
2023-01-17T20:13:56.667Z,53.20
2023-01-17T20:16:26.012Z,53.09
2023-01-17T20:18:53.936Z,52.95
2023-01-17T20:21:24.653Z,52.89
2023-01-17T20:23:53.468Z,52.96
2023-01-17T20:26:23.987Z,53.05
2023-01-17T20:28:52.175Z,52.94
2023-01-17T20:31:22.657Z,52.96
2023-01-17T20:33:52.734Z,53.24
2023-01-17T20:36:23.660Z,53.19
2023-01-17T20:38:51.496Z,53.13
2023-01-17T20:41:23.221Z,53.09
2023-01-17T20:43:54.847Z,53.03
2023-01-17T20:46:29.165Z,53.03
2023-01-17T20:48:58.013Z,53.05
2023-01-17T20:51:26.696Z,53.09
2023-01-17T20:53:59.686Z,53.02
2023-01-17T20:56:27.553Z,52.89
2023-01-17T20:58:56.059Z,52.75
2023-01-17T21:01:23.503Z,52.84
2023-01-17T21:03:53.166Z,52.83
2023-01-17T21:06:22.127Z,52.75
2023-01-17T21:08:50.634Z,52.71
2023-01-17T21:11:20.534Z,52.71
2023-01-17T21:13:51.390Z,52.72
2023-01-17T21:16:22.802Z,52.81
2023-01-17T21:18:51.597Z,52.64
2023-01-17T21:21:24.524Z,52.67
2023-01-17T21:23:57.543Z,52.67
2023-01-17T21:26:26.974Z,52.65
2023-01-17T21:28:55.368Z,52.62
2023-01-17T21:31:25.794Z,52.51
2023-01-17T21:34:01.550Z,52.59
2023-01-17T21:36:33.028Z,52.59
2023-01-17T21:39:05.452Z,52.40
2023-01-17T21:41:38.966Z,52.58
2023-01-17T21:44:11.478Z,52.68
2023-01-17T21:46:40.602Z,52.45
2023-01-17T21:49:13.181Z,52.51
2023-01-17T21:52:04.992Z,52.47
2023-01-17T21:54:51.211Z,52.45
2023-01-17T21:57:40.938Z,52.32
2023-01-17T22:00:14.243Z,52.53
2023-01-17T22:02:45.739Z,52.47
2023-01-17T22:05:14.221Z,52.52
2023-01-17T22:08:04.500Z,52.51
2023-01-17T22:10:32.516Z,52.36
2023-01-17T22:12:59.875Z,52.30
2023-01-17T22:15:27.449Z,52.42
2023-01-17T22:17:55.465Z,52.41
2023-01-17T22:20:23.797Z,52.34
2023-01-17T22:22:51.794Z,52.48
2023-01-17T22:25:19.441Z,52.42
2023-01-17T22:27:46.725Z,52.48
2023-01-17T22:30:15.051Z,52.51
2023-01-17T22:32:42.529Z,52.23
2023-01-17T22:35:10.212Z,52.48
2023-01-17T22:37:37.686Z,52.54
2023-01-17T22:40:06.320Z,52.51
2023-01-17T22:42:34.403Z,52.51
2023-01-17T22:45:02.049Z,52.42
2023-01-17T22:47:30.046Z,52.32
2023-01-17T22:49:57.972Z,52.43
2023-01-17T22:52:25.411Z,52.36
2023-01-17T22:54:52.951Z,52.33
2023-01-17T22:57:20.240Z,52.37
2023-01-17T22:59:47.798Z,52.39
2023-01-17T23:02:16.701Z,52.37
2023-01-17T23:04:44.725Z,52.45
2023-01-17T23:07:12.008Z,52.32
2023-01-17T23:09:39.588Z,52.30
2023-01-17T23:12:08.034Z,52.32
2023-01-17T23:14:54.953Z,52.23
2023-01-17T23:17:42.592Z,52.34
2023-01-17T23:20:10.957Z,52.33
2023-01-17T23:22:38.861Z,52.57
2023-01-17T23:25:11.966Z,52.31
2023-01-17T23:28:01.304Z,52.16
2023-01-17T23:30:35.305Z,52.22
2023-01-17T23:33:14.331Z,52.23
2023-01-17T23:35:44.415Z,52.33
2023-01-17T23:38:28.637Z,52.14
2023-01-17T23:41:23.819Z,52.06
2023-01-17T23:43:52.809Z,52.22
2023-01-17T23:46:20.483Z,52.27
2023-01-17T23:48:48.264Z,52.11
2023-01-17T23:51:15.883Z,52.21
2023-01-17T23:53:43.172Z,51.92
2023-01-17T23:56:14.582Z,52.07
2023-01-17T23:58:41.878Z,52.13
